createdAt,value
2023-03-05T00:01:08.023Z,74.86
2023-03-05T00:03:35.702Z,75.56
2023-03-05T00:06:03.091Z,76.28
2023-03-05T00:08:30.751Z,76.21
2023-03-05T00:10:59.913Z,76.95
2023-03-05T00:13:27.094Z,77.75
2023-03-05T00:15:54.628Z,75.62
2023-03-05T00:18:22.519Z,75.95
2023-03-05T00:20:50.166Z,76.73
2023-03-05T00:23:17.362Z,76.64
2023-03-05T00:25:46.184Z,76.77
2023-03-05T00:28:13.663Z,76.80
2023-03-05T00:30:41.186Z,77.44
2023-03-05T00:33:09.252Z,78.08
2023-03-05T00:35:44.938Z,76.76
2023-03-05T00:38:13.092Z,77.40
2023-03-05T00:40:41.461Z,78.12
2023-03-05T00:43:09.816Z,77.62
2023-03-05T00:45:37.101Z,79.09
2023-03-05T00:48:05.062Z,78.64
2023-03-05T00:50:32.250Z,77.93
2023-03-05T00:52:59.738Z,77.97
2023-03-05T00:55:26.810Z,79.00
2023-03-05T00:57:53.967Z,79.47
2023-03-05T01:00:21.234Z,77.80
2023-03-05T01:02:48.796Z,79.03
2023-03-05T01:05:16.176Z,77.67
2023-03-05T01:07:43.438Z,78.31
2023-03-05T01:10:12.057Z,77.35
2023-03-05T01:12:40.003Z,77.01
2023-03-05T01:15:07.938Z,78.45
2023-03-05T01:17:35.186Z,79.48
2023-03-05T01:20:02.459Z,77.87
2023-03-05T01:22:29.596Z,78.94
2023-03-05T01:24:56.759Z,78.93
2023-03-05T01:27:24.091Z,78.59
2023-03-05T01:29:51.207Z,78.52
2023-03-05T01:32:18.633Z,78.10
2023-03-05T01:34:45.811Z,77.09
2023-03-05T01:37:13.106Z,76.17
2023-03-05T01:39:40.302Z,75.37
2023-03-05T01:42:07.861Z,76.17
2023-03-05T01:44:35.620Z,75.02
2023-03-05T01:47:03.732Z,74.65
2023-03-05T01:49:39.040Z,76.53
2023-03-05T01:52:19.991Z,76.14
2023-03-05T01:54:53.853Z,74.85
2023-03-05T01:57:23.247Z,75.30
2023-03-05T01:59:56.117Z,75.60
2023-03-05T02:02:23.787Z,74.51
2023-03-05T02:04:56.560Z,74.48
2023-03-05T02:07:25.299Z,74.44
2023-03-05T02:09:52.729Z,75.07
2023-03-05T02:12:20.386Z,74.30
2023-03-05T02:14:51.134Z,74.90
2023-03-05T02:17:18.379Z,74.39
2023-03-05T02:19:54.744Z,74.70
2023-03-05T02:22:24.485Z,74.51
2023-03-05T02:24:52.561Z,74.34
2023-03-05T02:27:23.782Z,74.53
2023-03-05T02:29:52.377Z,74.71
2023-03-05T02:32:19.470Z,74.42
2023-03-05T02:34:46.704Z,75.44
2023-03-05T02:37:14.057Z,74.64
2023-03-05T02:39:41.287Z,75.52
2023-03-05T02:42:09.512Z,74.38
2023-03-05T02:44:37.663Z,75.49
2023-03-05T02:47:04.998Z,75.85
2023-03-05T02:49:33.905Z,74.69
2023-03-05T02:52:00.996Z,73.89
2023-03-05T02:54:28.427Z,74.07
2023-03-05T02:56:55.946Z,74.94
2023-03-05T02:59:23.228Z,75.86
2023-03-05T03:01:50.347Z,74.07
2023-03-05T03:04:17.455Z,74.40
2023-03-05T03:06:44.565Z,74.12
2023-03-05T03:09:11.704Z,75.95
2023-03-05T03:11:38.804Z,75.83
2023-03-05T03:14:06.024Z,74.66
2023-03-05T03:16:34.315Z,73.30
2023-03-05T03:19:01.457Z,75.01
2023-03-05T03:21:28.575Z,74.08
2023-03-05T03:23:55.777Z,73.92
2023-03-05T03:26:23.013Z,73.83
2023-03-05T03:28:50.991Z,75.25
2023-03-05T03:31:18.116Z,74.70
2023-03-05T03:33:45.660Z,75.50
2023-03-05T03:36:12.960Z,75.43
2023-03-05T03:38:40.230Z,74.66
2023-03-05T03:41:08.263Z,74.10
2023-03-05T03:43:36.757Z,73.25
2023-03-05T03:46:06.597Z,73.81
2023-03-05T03:48:34.589Z,74.36
2023-03-05T03:51:05.233Z,72.62
2023-03-05T03:53:32.409Z,72.78
2023-03-05T03:56:00.301Z,73.39
2023-03-05T03:58:27.559Z,73.48
2023-03-05T04:00:54.611Z,73.63
2023-03-05T04:03:21.731Z,74.50
2023-03-05T04:05:48.801Z,73.44
2023-03-05T04:08:15.949Z,73.71
2023-03-05T04:10:43.163Z,73.91
2023-03-05T04:13:10.293Z,74.61
2023-03-05T04:15:37.393Z,74.01
2023-03-05T04:18:04.734Z,73.36
2023-03-05T04:20:32.482Z,73.58
2023-03-05T04:22:59.540Z,74.17
2023-03-05T04:25:26.833Z,73.81
2023-03-05T04:27:54.017Z,75.01
2023-03-05T04:30:21.321Z,74.19
2023-03-05T04:32:48.446Z,73.79
2023-03-05T04:35:15.697Z,73.89
2023-03-05T04:37:42.798Z,74.76
2023-03-05T04:40:10.538Z,75.48
2023-03-05T04:42:37.750Z,75.61
2023-03-05T04:45:07.237Z,76.75
2023-03-05T04:47:34.943Z,76.20
2023-03-05T04:50:02.197Z,76.73
2023-03-05T04:52:29.233Z,77.03
2023-03-05T04:54:56.436Z,77.62
2023-03-05T04:57:24.167Z,77.58
2023-03-05T04:59:51.555Z,77.67
2023-03-05T05:02:18.705Z,77.07
2023-03-05T05:04:46.244Z,77.01
2023-03-05T05:07:13.373Z,76.85
2023-03-05T05:09:41.847Z,77.43
2023-03-05T05:12:10.755Z,77.25
2023-03-05T05:14:38.057Z,76.84
2023-03-05T05:17:05.462Z,77.22
2023-03-05T05:19:34.267Z,77.51
2023-03-05T05:22:02.102Z,76.19
2023-03-05T05:24:29.331Z,75.82
2023-03-05T05:26:56.998Z,76.52
2023-03-05T05:29:24.282Z,76.52
2023-03-05T05:31:51.480Z,75.66
2023-03-05T05:34:18.823Z,75.79
2023-03-05T05:36:45.955Z,76.29
2023-03-05T05:39:13.111Z,76.42
2023-03-05T05:41:40.236Z,75.50
2023-03-05T05:44:07.430Z,75.71
2023-03-05T05:46:34.613Z,75.81
2023-03-05T05:49:01.852Z,75.79
2023-03-05T05:51:29.023Z,74.98
2023-03-05T05:53:56.352Z,74.97
2023-03-05T05:56:23.631Z,76.02
2023-03-05T05:58:50.811Z,75.56
2023-03-05T06:01:30.821Z,75.89
2023-03-05T06:03:58.959Z,75.10
2023-03-05T06:06:27.350Z,74.66
2023-03-05T06:08:55.675Z,74.77
2023-03-05T06:11:23.381Z,75.77
2023-03-05T06:13:51.072Z,75.70
2023-03-05T06:16:24.450Z,74.74
2023-03-05T06:18:52.910Z,75.40
2023-03-05T06:21:22.039Z,75.57
2023-03-05T06:23:49.871Z,74.53
2023-03-05T06:26:20.085Z,74.78
2023-03-05T06:28:47.311Z,74.30
2023-03-05T06:31:18.136Z,74.87
2023-03-05T06:33:45.850Z,74.80
2023-03-05T06:36:16.288Z,75.03
2023-03-05T06:38:43.651Z,74.89
2023-03-05T06:41:16.740Z,74.75
2023-03-05T06:43:46.288Z,75.27
2023-03-05T06:46:24.036Z,74.04
2023-03-05T06:48:52.102Z,74.00
2023-03-05T06:51:22.840Z,75.71
2023-03-05T06:53:51.583Z,75.06
2023-03-05T06:56:20.118Z,73.94
2023-03-05T06:58:51.149Z,73.90
2023-03-05T07:01:18.912Z,74.25
2023-03-05T07:03:53.764Z,74.35
2023-03-05T07:06:22.591Z,75.09
2023-03-05T07:08:50.310Z,74.09
2023-03-05T07:11:20.168Z,73.85
2023-03-05T07:13:48.136Z,73.51
2023-03-05T07:16:21.440Z,73.27
2023-03-05T07:18:49.683Z,74.17
2023-03-05T07:21:21.078Z,73.42
2023-03-05T07:23:48.530Z,73.34
2023-03-05T07:26:16.519Z,73.33
2023-03-05T07:28:44.125Z,72.85
2023-03-05T07:31:19.670Z,73.40
2023-03-05T07:33:51.243Z,73.05
2023-03-05T07:36:18.620Z,73.38
2023-03-05T07:38:46.702Z,73.22
2023-03-05T07:41:20.419Z,71.69
2023-03-05T07:43:49.124Z,71.74
2023-03-05T07:46:19.518Z,72.26
2023-03-05T07:48:46.771Z,72.88
2023-03-05T07:51:17.603Z,71.14
2023-03-05T07:53:46.406Z,71.55
2023-03-05T07:56:13.697Z,72.13
2023-03-05T07:58:40.905Z,71.09
2023-03-05T08:01:16.050Z,71.58
2023-03-05T08:03:43.952Z,72.22
2023-03-05T08:06:12.909Z,71.01
2023-03-05T08:08:40.057Z,71.53
2023-03-05T08:11:13.274Z,71.20
2023-03-05T08:13:40.719Z,71.13
2023-03-05T08:16:14.547Z,70.84
2023-03-05T08:18:41.909Z,71.04
2023-03-05T08:21:17.923Z,71.21
2023-03-05T08:23:45.064Z,71.08
2023-03-05T08:26:14.544Z,70.44
2023-03-05T08:28:41.803Z,70.81
2023-03-05T08:31:10.463Z,70.86
2023-03-05T08:33:38.780Z,70.85
2023-03-05T08:36:06.582Z,70.43
2023-03-05T08:38:33.673Z,69.66
2023-03-05T08:41:01.583Z,70.16
2023-03-05T08:43:28.791Z,69.50
2023-03-05T08:45:55.870Z,69.85
2023-03-05T08:48:23.496Z,69.51
2023-03-05T08:50:50.759Z,68.85
2023-03-05T08:53:18.187Z,68.93
2023-03-05T08:55:53.406Z,69.46
2023-03-05T08:58:20.498Z,69.07
2023-03-05T09:00:47.715Z,69.17
2023-03-05T09:03:15.294Z,68.62
2023-03-05T09:05:42.470Z,68.60
2023-03-05T09:08:09.621Z,68.33
2023-03-05T09:10:36.796Z,68.36
2023-03-05T09:13:04.509Z,68.36
2023-03-05T09:15:31.805Z,68.06
2023-03-05T09:18:00.165Z,68.16
2023-03-05T09:20:27.512Z,67.91
2023-03-05T09:22:54.961Z,67.68
2023-03-05T09:25:23.203Z,68.18
2023-03-05T09:27:50.271Z,67.94
2023-03-05T09:30:17.781Z,67.31
2023-03-05T09:32:44.975Z,66.99
2023-03-05T09:35:12.621Z,67.05
2023-03-05T09:37:39.796Z,66.66
2023-03-05T09:40:07.685Z,66.47
2023-03-05T09:42:40.509Z,66.73
2023-03-05T09:45:14.320Z,66.91
2023-03-05T09:47:46.961Z,65.86
2023-03-05T09:50:39.210Z,65.70
2023-03-05T09:53:12.912Z,65.94
2023-03-05T09:55:44.216Z,65.94
2023-03-05T09:58:40.873Z,65.74
2023-03-05T10:01:17.733Z,65.20
2023-03-05T10:03:54.294Z,65.02
2023-03-05T10:06:32.190Z,64.65
2023-03-05T10:09:16.213Z,64.57
2023-03-05T10:12:08.363Z,65.41
2023-03-05T10:14:39.924Z,64.43
2023-03-05T10:17:45.619Z,64.17
2023-03-05T10:20:51.576Z,64.42
2023-03-05T10:23:33.848Z,64.67
2023-03-05T10:26:14.428Z,63.55
2023-03-05T10:29:26.548Z,64.17
2023-03-05T10:32:09.467Z,63.85
2023-03-05T10:34:42.542Z,63.92
2023-03-05T10:37:28.555Z,63.19
2023-03-05T10:40:13.871Z,63.23
2023-03-05T10:42:53.022Z,63.00
2023-03-05T10:45:46.409Z,62.67
2023-03-05T10:48:34.282Z,63.41
2023-03-05T10:51:14.147Z,62.71
2023-03-05T10:54:09.423Z,62.66
2023-03-05T10:56:37.386Z,63.29
2023-03-05T10:59:04.513Z,62.57
2023-03-05T11:01:32.577Z,62.67
2023-03-05T11:04:06.508Z,62.19
2023-03-05T11:06:38.838Z,61.84
2023-03-05T11:09:24.840Z,61.03
2023-03-05T11:12:06.209Z,61.15
2023-03-05T11:14:34.187Z,61.71
2023-03-05T11:17:03.531Z,61.63
2023-03-05T11:19:33.519Z,61.83
2023-03-05T11:22:21.639Z,62.37
2023-03-05T11:25:04.117Z,61.97
2023-03-05T11:27:40.655Z,61.54
2023-03-05T11:30:22.099Z,61.46
2023-03-05T11:32:49.301Z,61.07
2023-03-05T11:35:32.063Z,61.74
2023-03-05T11:38:06.598Z,62.60
2023-03-05T11:40:38.140Z,63.29
2023-03-05T11:43:05.583Z,62.54
2023-03-05T11:45:34.360Z,62.27
2023-03-05T11:48:13.385Z,62.35
2023-03-05T11:50:44.301Z,63.09
2023-03-05T11:53:20.939Z,61.85
2023-03-05T11:56:00.460Z,60.81
2023-03-05T11:58:33.217Z,61.31
2023-03-05T12:01:01.577Z,62.07
2023-03-05T12:03:38.562Z,61.46
2023-03-05T12:06:39.739Z,62.03
2023-03-05T12:09:28.459Z,61.60
2023-03-05T12:12:16.376Z,62.43
2023-03-05T12:14:57.134Z,63.16
2023-03-05T12:17:33.603Z,62.93
2023-03-05T12:20:06.649Z,61.67
2023-03-05T12:22:42.492Z,61.65
2023-03-05T12:25:27.072Z,61.54
2023-03-05T12:27:55.128Z,60.69
2023-03-05T12:30:34.221Z,61.16
2023-03-05T12:33:06.131Z,60.55
2023-03-05T12:35:37.608Z,61.10
2023-03-05T12:38:31.358Z,60.43
2023-03-05T12:41:23.061Z,60.97
2023-03-05T12:44:08.927Z,61.35
2023-03-05T12:46:38.321Z,60.88
2023-03-05T12:49:20.789Z,60.64
2023-03-05T12:51:52.748Z,60.46
2023-03-05T12:54:31.289Z,60.63
2023-03-05T12:57:02.078Z,61.05
2023-03-05T12:59:46.964Z,60.97
2023-03-05T13:02:44.826Z,61.12
2023-03-05T13:05:18.918Z,61.54
2023-03-05T13:07:46.046Z,60.74
2023-03-05T13:10:29.779Z,60.73
2023-03-05T13:12:58.869Z,61.22
2023-03-05T13:15:26.645Z,60.62
2023-03-05T13:18:03.628Z,61.06
2023-03-05T13:20:38.764Z,60.82
2023-03-05T13:23:17.237Z,61.25
2023-03-05T13:26:04.106Z,59.23
2023-03-05T13:28:33.506Z,60.27
2023-03-05T13:31:13.019Z,60.01
2023-03-05T13:33:40.635Z,60.48
2023-03-05T13:36:07.950Z,59.88
2023-03-05T13:38:45.606Z,59.99
2023-03-05T13:41:15.937Z,59.75
2023-03-05T13:43:45.995Z,60.95
2023-03-05T13:46:13.591Z,60.71
2023-03-05T13:48:40.723Z,60.80
2023-03-05T13:51:10.019Z,60.33
2023-03-05T13:53:37.212Z,60.53
2023-03-05T13:56:14.607Z,60.11
2023-03-05T13:58:56.108Z,60.15
2023-03-05T14:01:44.188Z,60.60
2023-03-05T14:04:13.946Z,59.86
2023-03-05T14:06:55.357Z,60.36
2023-03-05T14:09:31.245Z,60.42
2023-03-05T14:12:04.323Z,59.94
2023-03-05T14:14:36.913Z,59.77
2023-03-05T14:17:23.847Z,59.75
2023-03-05T14:19:51.368Z,59.78
2023-03-05T14:22:36.766Z,60.56
2023-03-05T14:25:05.888Z,60.08
2023-03-05T14:27:37.122Z,60.41
2023-03-05T14:30:05.474Z,60.98
2023-03-05T14:32:36.264Z,60.11
2023-03-05T14:35:06.163Z,59.57
2023-03-05T14:37:36.988Z,59.64
2023-03-05T14:40:08.906Z,60.48
2023-03-05T14:42:39.380Z,60.18
2023-03-05T14:45:19.646Z,61.17
2023-03-05T14:47:47.636Z,60.67
2023-03-05T14:50:21.210Z,61.64
2023-03-05T14:52:51.991Z,60.65
2023-03-05T14:55:23.075Z,60.69
2023-03-05T14:57:51.880Z,60.65
2023-03-05T15:00:25.495Z,60.55
2023-03-05T15:02:53.139Z,61.14
2023-03-05T15:05:21.116Z,60.13
2023-03-05T15:07:49.156Z,60.09
2023-03-05T15:10:19.343Z,59.97
2023-03-05T15:12:46.831Z,59.81
2023-03-05T15:15:15.677Z,60.58
2023-03-05T15:17:47.799Z,61.00
2023-03-05T15:20:27.339Z,60.19
2023-03-05T15:22:55.219Z,60.09
2023-03-05T15:25:23.818Z,60.62
2023-03-05T15:27:53.930Z,60.36
2023-03-05T15:30:30.566Z,61.16
2023-03-05T15:33:01.818Z,61.33
2023-03-05T15:35:29.648Z,60.79
2023-03-05T15:37:58.277Z,60.90
2023-03-05T15:40:28.033Z,62.30
2023-03-05T15:42:57.068Z,60.63
2023-03-05T15:45:24.955Z,61.11
2023-03-05T15:47:53.522Z,60.43
2023-03-05T15:50:22.717Z,61.28
2023-03-05T15:52:50.346Z,61.50
2023-03-05T15:55:18.714Z,61.79
2023-03-05T15:57:48.848Z,61.68
2023-03-05T16:00:25.798Z,61.66
2023-03-05T16:02:53.674Z,62.25
2023-03-05T16:05:21.178Z,61.41
2023-03-05T16:07:51.834Z,61.60
2023-03-05T16:10:29.070Z,62.24
2023-03-05T16:13:04.387Z,62.17
2023-03-05T16:15:33.380Z,62.19
2023-03-05T16:18:04.774Z,62.93
2023-03-05T16:20:31.932Z,62.54
2023-03-05T16:22:59.562Z,63.13
2023-03-05T16:25:27.089Z,62.81
2023-03-05T16:27:54.234Z,62.01
2023-03-05T16:30:21.592Z,61.82
2023-03-05T16:32:49.260Z,61.70
2023-03-05T16:35:16.623Z,61.57
2023-03-05T16:37:43.850Z,61.91
2023-03-05T16:40:12.527Z,61.96
2023-03-05T16:42:40.105Z,61.90
2023-03-05T16:45:08.079Z,61.60
2023-03-05T16:47:35.405Z,60.62
2023-03-05T16:50:02.690Z,61.46
2023-03-05T16:52:30.304Z,61.50
2023-03-05T16:54:57.406Z,62.01
2023-03-05T16:57:26.110Z,61.75
2023-03-05T16:59:54.465Z,61.75
2023-03-05T17:02:22.103Z,62.12
2023-03-05T17:04:50.709Z,63.19
2023-03-05T17:07:18.254Z,64.91
2023-03-05T17:09:48.413Z,62.91
2023-03-05T17:12:15.465Z,62.59
2023-03-05T17:14:42.634Z,64.33
2023-03-05T17:17:10.034Z,64.31
2023-03-05T17:19:37.652Z,65.68
2023-03-05T17:22:05.215Z,64.81
2023-03-05T17:24:33.597Z,64.41
2023-03-05T17:27:01.525Z,63.39
2023-03-05T17:29:29.461Z,63.52
2023-03-05T17:31:56.617Z,63.14
2023-03-05T17:34:35.608Z,64.32
2023-03-05T17:37:05.813Z,63.97
2023-03-05T17:39:33.638Z,63.02
2023-03-05T17:42:01.499Z,63.98
2023-03-05T17:44:28.619Z,64.13
2023-03-05T17:46:55.809Z,64.57
2023-03-05T17:49:23.067Z,64.44
2023-03-05T17:51:50.180Z,64.35
2023-03-05T17:54:17.351Z,64.88
2023-03-05T17:56:44.467Z,64.88
2023-03-05T17:59:11.690Z,65.26
2023-03-05T18:01:38.832Z,65.76
2023-03-05T18:04:08.948Z,65.73
2023-03-05T18:06:36.112Z,65.95
2023-03-05T18:09:03.569Z,66.71
2023-03-05T18:11:30.879Z,67.32
2023-03-05T18:13:58.193Z,67.41
2023-03-05T18:16:25.537Z,67.61
2023-03-05T18:18:53.213Z,67.64
2023-03-05T18:21:21.446Z,67.69
2023-03-05T18:23:49.861Z,67.71
2023-03-05T18:26:17.534Z,67.39
2023-03-05T18:28:44.719Z,67.31
2023-03-05T18:31:11.890Z,67.57
2023-03-05T18:33:39.181Z,67.43
2023-03-05T18:36:06.911Z,67.24
2023-03-05T18:38:35.320Z,67.68
2023-03-05T18:41:03.479Z,68.10
2023-03-05T18:43:30.746Z,68.25
2023-03-05T18:45:58.720Z,67.84
2023-03-05T18:48:26.088Z,66.60
2023-03-05T18:50:54.653Z,66.86
2023-03-05T18:53:22.969Z,67.52
2023-03-05T18:55:51.970Z,67.36
2023-03-05T18:58:19.484Z,67.68
2023-03-05T19:00:47.954Z,67.68
2023-03-05T19:03:20.608Z,68.51
2023-03-05T19:05:50.612Z,67.31
2023-03-05T19:08:18.003Z,67.61
2023-03-05T19:10:45.169Z,66.87
2023-03-05T19:13:38.318Z,66.77
2023-03-05T19:16:40.774Z,67.16
2023-03-05T19:19:24.708Z,67.13
2023-03-05T19:21:54.373Z,68.38
2023-03-05T19:24:23.557Z,68.18
2023-03-05T19:26:55.542Z,68.22
2023-03-05T19:29:24.954Z,70.40
2023-03-05T19:31:52.869Z,68.60
2023-03-05T19:34:21.409Z,66.67
2023-03-05T19:36:48.540Z,67.50
2023-03-05T19:39:15.963Z,68.35
2023-03-05T19:41:43.028Z,68.34
2023-03-05T19:44:10.228Z,69.29
2023-03-05T19:46:37.348Z,69.55
2023-03-05T19:49:05.027Z,69.26
2023-03-05T19:51:32.215Z,68.55
2023-03-05T19:53:59.689Z,67.53
2023-03-05T19:56:27.068Z,67.48
2023-03-05T19:58:54.199Z,67.50
2023-03-05T20:01:24.344Z,69.16
2023-03-05T20:03:53.844Z,70.07
2023-03-05T20:06:22.167Z,70.02
2023-03-05T20:08:49.839Z,69.61
2023-03-05T20:11:18.736Z,69.83
2023-03-05T20:13:46.725Z,68.64
2023-03-05T20:16:20.087Z,69.12
2023-03-05T20:18:47.926Z,68.67
2023-03-05T20:21:21.510Z,68.00
2023-03-05T20:23:52.578Z,69.44
2023-03-05T20:26:21.256Z,68.77
2023-03-05T20:28:50.114Z,69.01
2023-03-05T20:31:22.331Z,68.27
2023-03-05T20:33:50.508Z,66.97
2023-03-05T20:36:18.108Z,66.02
2023-03-05T20:38:46.068Z,67.48
2023-03-05T20:41:16.989Z,66.65
2023-03-05T20:43:47.846Z,66.22
2023-03-05T20:46:27.276Z,68.25
2023-03-05T20:48:57.879Z,66.53
2023-03-05T20:51:37.103Z,67.26
2023-03-05T20:54:11.509Z,67.42
2023-03-05T20:56:39.203Z,68.38
2023-03-05T20:59:09.063Z,66.47
2023-03-05T21:01:39.249Z,68.73
2023-03-05T21:04:07.287Z,69.17
2023-03-05T21:06:35.136Z,68.12
2023-03-05T21:09:02.776Z,68.17
2023-03-05T21:11:30.151Z,67.26
2023-03-05T21:13:57.283Z,68.64
2023-03-05T21:16:27.380Z,68.21
2023-03-05T21:18:56.172Z,67.92
2023-03-05T21:21:23.391Z,67.83
2023-03-05T21:23:50.676Z,67.95
2023-03-05T21:26:18.508Z,68.71
2023-03-05T21:28:45.586Z,67.92
2023-03-05T21:31:21.208Z,68.72
2023-03-05T21:33:49.812Z,68.79
2023-03-05T21:36:20.334Z,69.50
2023-03-05T21:38:48.750Z,69.81
2023-03-05T21:41:18.425Z,69.65
2023-03-05T21:43:45.588Z,69.13
2023-03-05T21:46:12.921Z,68.64
2023-03-05T21:48:40.406Z,69.18
2023-03-05T21:51:09.499Z,68.87
2023-03-05T21:53:36.696Z,67.99
2023-03-05T21:56:18.254Z,68.35
2023-03-05T21:58:46.098Z,68.62
2023-03-05T22:01:15.012Z,68.31
2023-03-05T22:03:42.367Z,68.67
2023-03-05T22:06:11.768Z,69.66
2023-03-05T22:08:38.955Z,70.03
2023-03-05T22:11:15.364Z,69.63
2023-03-05T22:13:43.518Z,69.02
2023-03-05T22:16:11.377Z,71.14
2023-03-05T22:18:38.442Z,69.84
2023-03-05T22:21:06.317Z,69.98
2023-03-05T22:23:34.749Z,68.61
2023-03-05T22:26:06.971Z,69.07
2023-03-05T22:28:35.355Z,69.45
2023-03-05T22:31:02.625Z,69.94
2023-03-05T22:33:30.366Z,70.30
2023-03-05T22:35:58.220Z,68.93
2023-03-05T22:38:25.594Z,69.10
2023-03-05T22:40:53.135Z,70.03
2023-03-05T22:43:20.751Z,71.07
2023-03-05T22:45:48.379Z,70.94
2023-03-05T22:48:15.700Z,70.30
2023-03-05T22:50:44.587Z,68.88
2023-03-05T22:53:12.748Z,70.18
2023-03-05T22:55:42.321Z,69.53
2023-03-05T22:58:09.577Z,69.41
2023-03-05T23:00:36.942Z,69.15
2023-03-05T23:03:04.318Z,69.00
2023-03-05T23:05:31.479Z,69.44
2023-03-05T23:07:58.555Z,70.36
2023-03-05T23:10:28.938Z,71.34
2023-03-05T23:12:58.751Z,71.36
2023-03-05T23:15:29.740Z,71.57
2023-03-05T23:17:57.437Z,71.20
2023-03-05T23:20:28.641Z,71.24
2023-03-05T23:22:56.579Z,70.97
2023-03-05T23:25:26.610Z,71.38
2023-03-05T23:27:54.797Z,72.03
2023-03-05T23:30:29.608Z,72.03
2023-03-05T23:33:13.738Z,72.56
2023-03-05T23:35:44.094Z,73.45
2023-03-05T23:38:14.991Z,73.30
2023-03-05T23:40:45.124Z,73.28
2023-03-05T23:43:13.049Z,73.27
2023-03-05T23:45:45.249Z,73.09
2023-03-05T23:48:12.498Z,72.27
2023-03-05T23:50:43.130Z,72.12
2023-03-05T23:53:12.426Z,72.42
2023-03-05T23:55:44.392Z,71.81
2023-03-05T23:58:12.119Z,71.67
